createdAt,value
2018-10-05T00:00:35.934Z,17.87
2018-10-05T00:03:04.082Z,16.27
2018-10-05T00:05:32.272Z,20.77
2018-10-05T00:08:00.434Z,18.77
2018-10-05T00:10:28.571Z,18.77
2018-10-05T00:12:56.707Z,17.37
2018-10-05T00:15:24.827Z,17.17
2018-10-05T00:17:52.958Z,19.30
2018-10-05T00:20:21.120Z,16.00
2018-10-05T00:22:49.276Z,14.13
2018-10-05T00:25:17.408Z,16.27
2018-10-05T00:27:45.540Z,16.57
2018-10-05T00:30:13.692Z,19.40
2018-10-05T00:32:41.815Z,17.67
2018-10-05T00:35:09.959Z,21.00
2018-10-05T00:37:38.094Z,18.33
2018-10-05T00:40:06.442Z,18.70
2018-10-05T00:42:34.612Z,20.83
2018-10-05T00:45:02.749Z,11.73
2018-10-05T00:47:30.890Z,16.07
2018-10-05T00:49:59.054Z,18.53
2018-10-05T00:52:27.186Z,19.70
2018-10-05T00:54:55.335Z,16.93
2018-10-05T00:57:23.475Z,21.50
2018-10-05T00:59:51.642Z,19.53
2018-10-05T01:02:19.771Z,20.90
2018-10-05T01:04:47.919Z,17.40
2018-10-05T01:07:16.059Z,20.47
2018-10-05T01:09:44.174Z,23.17
2018-10-05T01:12:12.331Z,18.67
2018-10-05T01:14:40.466Z,24.17
2018-10-05T01:17:08.635Z,13.93
2018-10-05T01:19:38.303Z,21.03
2018-10-05T01:22:06.541Z,22.03
2018-10-05T01:24:34.742Z,24.13
2018-10-05T01:27:02.922Z,20.77
2018-10-05T01:29:31.060Z,21.90
2018-10-05T01:31:59.198Z,22.93
2018-10-05T01:34:27.366Z,23.07
2018-10-05T01:36:55.494Z,21.50
2018-10-05T01:39:23.623Z,18.60
2018-10-05T01:41:51.890Z,20.57
2018-10-05T01:44:20.023Z,17.90
2018-10-05T01:46:48.158Z,20.93
2018-10-05T01:49:16.295Z,18.80
2018-10-05T01:51:45.386Z,18.90
2018-10-05T01:54:13.512Z,21.00
2018-10-05T01:56:41.646Z,19.83
2018-10-05T01:59:09.809Z,19.77
2018-10-05T02:01:37.936Z,20.97
2018-10-05T02:04:06.062Z,20.27
2018-10-05T02:06:34.186Z,18.40
2018-10-05T02:09:02.302Z,19.33
2018-10-05T02:11:30.432Z,23.00
2018-10-05T02:13:58.547Z,19.80
2018-10-05T02:16:26.678Z,23.70
2018-10-05T02:18:54.798Z,19.27
2018-10-05T02:21:22.951Z,18.70
2018-10-05T02:23:51.073Z,22.13
2018-10-05T02:26:19.215Z,20.33
2018-10-05T02:28:47.359Z,25.50
2018-10-05T02:31:15.552Z,19.70
2018-10-05T02:33:43.703Z,19.20
2018-10-05T02:36:11.832Z,21.73
2018-10-05T02:38:40.032Z,19.53
2018-10-05T02:41:08.158Z,24.10
2018-10-05T02:43:36.295Z,23.07
2018-10-05T02:46:04.426Z,21.67
2018-10-05T02:48:32.568Z,22.33
2018-10-05T02:51:00.699Z,22.97
2018-10-05T02:53:28.827Z,24.00
2018-10-05T02:55:57.006Z,22.47
2018-10-05T02:58:25.154Z,24.23
2018-10-05T03:01:04.694Z,23.07
2018-10-05T03:03:32.830Z,22.70
2018-10-05T03:06:07.687Z,21.90
2018-10-05T03:08:35.819Z,19.57
2018-10-05T03:11:03.982Z,24.13
2018-10-05T03:13:32.140Z,21.43
2018-10-05T03:16:00.322Z,24.27
2018-10-05T03:18:28.455Z,19.03
2018-10-05T03:20:56.627Z,23.87
2018-10-05T03:23:24.750Z,25.57
2018-10-05T03:25:52.883Z,21.43
2018-10-05T03:28:21.010Z,22.37
2018-10-05T03:30:49.144Z,24.40
2018-10-05T03:33:17.270Z,19.87
2018-10-05T03:35:45.403Z,21.90
2018-10-05T03:38:13.538Z,23.23
2018-10-05T03:40:41.715Z,19.03
2018-10-05T03:43:09.863Z,25.80
2018-10-05T03:45:38.011Z,23.77
2018-10-05T03:48:06.322Z,21.00
2018-10-05T03:50:34.501Z,19.73
2018-10-05T03:53:02.816Z,23.20
2018-10-05T03:55:30.950Z,23.50
2018-10-05T03:57:59.060Z,25.30
2018-10-05T04:00:27.315Z,20.87
2018-10-05T04:02:55.466Z,22.67
2018-10-05T04:05:23.643Z,21.40
2018-10-05T04:07:51.913Z,21.17
2018-10-05T04:10:20.040Z,22.00
2018-10-05T04:12:48.242Z,23.93
2018-10-05T04:15:16.378Z,26.67
2018-10-05T04:17:44.519Z,22.47
2018-10-05T04:20:12.935Z,24.27
2018-10-05T04:22:41.119Z,22.97
2018-10-05T04:25:09.277Z,20.40
2018-10-05T04:27:37.413Z,22.73
2018-10-05T04:30:05.563Z,25.20
2018-10-05T04:32:33.678Z,24.97
2018-10-05T04:35:01.818Z,27.17
2018-10-05T04:37:29.950Z,24.93
2018-10-05T04:39:58.099Z,21.57
2018-10-05T04:42:26.232Z,26.47
2018-10-05T04:44:54.362Z,24.27
2018-10-05T04:47:22.532Z,23.77
2018-10-05T04:49:50.666Z,24.87
2018-10-05T04:52:18.820Z,21.00
2018-10-05T04:54:46.947Z,25.03
2018-10-05T04:57:15.094Z,25.90
2018-10-05T04:59:43.223Z,20.90
2018-10-05T05:02:11.374Z,24.10
2018-10-05T05:04:39.532Z,23.40
2018-10-05T05:07:07.805Z,25.63
2018-10-05T05:09:36.065Z,23.00
2018-10-05T05:12:04.349Z,21.37
2018-10-05T05:14:32.516Z,23.90
2018-10-05T05:17:00.684Z,22.50
2018-10-05T05:19:28.907Z,25.20
2018-10-05T05:21:57.027Z,28.67
2018-10-05T05:24:25.239Z,20.80
2018-10-05T05:26:53.339Z,21.33
2018-10-05T05:29:21.479Z,20.20
2018-10-05T05:31:49.602Z,17.97
2018-10-05T05:34:17.731Z,19.40
2018-10-05T05:36:45.866Z,21.90
2018-10-05T05:39:14.000Z,18.80
2018-10-05T05:41:42.142Z,17.03
2018-10-05T05:44:10.330Z,23.00
2018-10-05T05:46:38.453Z,18.50
2018-10-05T05:49:06.639Z,18.23
2018-10-05T05:51:34.862Z,20.90
2018-10-05T05:54:03.018Z,17.37
2018-10-05T05:56:31.171Z,19.60
2018-10-05T05:58:59.304Z,18.27
2018-10-05T06:01:27.435Z,21.13
2018-10-05T06:03:55.661Z,18.67
2018-10-05T06:06:23.748Z,18.23
2018-10-05T06:08:51.939Z,21.03
2018-10-05T06:11:20.075Z,21.37
2018-10-05T06:13:48.211Z,19.87
2018-10-05T06:16:16.358Z,17.13
2018-10-05T06:18:44.542Z,15.80
2018-10-05T06:21:12.686Z,19.30
2018-10-05T06:23:40.843Z,16.60
2018-10-05T06:26:09.099Z,17.07
2018-10-05T06:28:37.235Z,18.97
2018-10-05T06:31:05.642Z,18.13
2018-10-05T06:33:33.733Z,18.50
2018-10-05T06:36:01.890Z,17.37
2018-10-05T06:38:30.058Z,17.10
2018-10-05T06:40:58.227Z,18.23
2018-10-05T06:43:26.377Z,16.40
2018-10-05T06:45:54.502Z,18.67
2018-10-05T06:48:22.663Z,18.23
2018-10-05T06:50:50.828Z,15.73
2018-10-05T06:53:18.959Z,20.43
2018-10-05T06:55:47.095Z,19.10
2018-10-05T06:58:15.219Z,13.83
2018-10-05T07:00:43.403Z,14.60
2018-10-05T07:03:11.535Z,15.00
2018-10-05T07:05:39.663Z,14.83
2018-10-05T07:08:07.812Z,16.23
2018-10-05T07:10:35.976Z,13.67
2018-10-05T07:13:04.125Z,14.47
2018-10-05T07:15:32.284Z,15.30
2018-10-05T07:18:00.422Z,17.27
2018-10-05T07:20:28.719Z,15.77
2018-10-05T07:22:56.850Z,15.17
2018-10-05T07:25:25.112Z,12.20
2018-10-05T07:27:53.247Z,16.67
2018-10-05T07:30:21.366Z,17.93
2018-10-05T07:32:49.519Z,14.30
2018-10-05T07:35:17.667Z,15.70
2018-10-05T07:37:45.827Z,13.50
2018-10-05T07:40:13.962Z,18.07
2018-10-05T07:42:42.126Z,13.70
2018-10-05T07:45:10.270Z,14.37
2018-10-05T07:47:38.406Z,14.33
2018-10-05T07:50:06.537Z,15.27
2018-10-05T07:52:35.079Z,14.33
2018-10-05T07:55:03.232Z,18.03
2018-10-05T07:57:31.428Z,13.67
2018-10-05T07:59:59.583Z,12.80
2018-10-05T08:02:27.724Z,17.47
2018-10-05T08:04:55.858Z,13.13
2018-10-05T08:07:24.000Z,15.10
2018-10-05T08:09:52.123Z,14.10
2018-10-05T08:12:20.248Z,12.83
2018-10-05T08:14:48.379Z,14.83
2018-10-05T08:17:16.571Z,14.77
2018-10-05T08:19:44.717Z,14.63
2018-10-05T08:22:12.869Z,19.63
2018-10-05T08:24:41.022Z,11.87
2018-10-05T08:27:09.179Z,15.07
2018-10-05T08:29:37.314Z,14.80
2018-10-05T08:32:05.439Z,11.17
2018-10-05T08:34:33.628Z,10.97
2018-10-05T08:37:01.714Z,14.57
2018-10-05T08:39:29.865Z,13.50
2018-10-05T08:41:57.991Z,13.37
2018-10-05T08:44:26.152Z,16.17
2018-10-05T08:46:54.283Z,12.77
2018-10-05T08:49:22.415Z,10.07
2018-10-05T08:51:50.587Z,13.40
2018-10-05T08:54:18.710Z,11.17
2018-10-05T08:56:46.858Z,13.73
2018-10-05T08:59:15.007Z,15.93
2018-10-05T09:01:43.175Z,14.63
2018-10-05T09:04:11.374Z,14.40
2018-10-05T09:06:39.490Z,8.27
2018-10-05T09:09:07.877Z,10.60
2018-10-05T09:11:36.020Z,11.27
2018-10-05T09:14:04.159Z,12.17
2018-10-05T09:16:32.290Z,11.67
2018-10-05T09:19:00.442Z,11.57
2018-10-05T09:21:28.626Z,11.27
2018-10-05T09:23:56.768Z,13.07
2018-10-05T09:26:24.886Z,11.60
2018-10-05T09:28:53.023Z,11.13
2018-10-05T09:31:21.268Z,13.67
2018-10-05T09:33:49.606Z,12.73
2018-10-05T09:36:17.744Z,11.43
2018-10-05T09:38:46.216Z,12.47
2018-10-05T09:41:14.393Z,13.43
2018-10-05T09:43:42.572Z,11.07
2018-10-05T09:46:10.723Z,11.80
2018-10-05T09:48:38.861Z,11.53
2018-10-05T09:51:06.999Z,10.97
2018-10-05T09:53:35.152Z,12.93
2018-10-05T09:56:03.526Z,15.70
2018-10-05T09:58:31.691Z,12.17
2018-10-05T10:01:05.260Z,10.37
2018-10-05T10:03:34.942Z,9.57
2018-10-05T10:06:03.641Z,9.83
2018-10-05T10:08:31.798Z,10.23
2018-10-05T10:10:59.926Z,15.77
2018-10-05T10:13:28.071Z,10.07
2018-10-05T10:15:56.346Z,9.30
2018-10-05T10:18:24.499Z,13.07
2018-10-05T10:20:52.640Z,10.57
2018-10-05T10:23:20.777Z,11.93
2018-10-05T10:25:48.902Z,9.63
2018-10-05T10:28:17.164Z,9.07
2018-10-05T10:30:45.299Z,10.70
2018-10-05T10:33:13.422Z,8.90
2018-10-05T10:35:41.548Z,10.67
2018-10-05T10:38:09.695Z,12.07
2018-10-05T10:40:37.821Z,11.83
2018-10-05T10:43:06.095Z,8.23
2018-10-05T10:45:34.242Z,14.70
2018-10-05T10:48:02.374Z,9.17
2018-10-05T10:50:30.490Z,8.67
2018-10-05T10:52:58.651Z,10.70
2018-10-05T10:55:26.803Z,9.17
2018-10-05T10:57:54.923Z,9.37
2018-10-05T11:00:23.085Z,10.73
2018-10-05T11:02:51.226Z,10.37
2018-10-05T11:05:19.363Z,11.13
2018-10-05T11:07:47.579Z,8.77
2018-10-05T11:10:15.695Z,9.30
2018-10-05T11:12:43.898Z,8.60
2018-10-05T11:15:12.069Z,3.77
2018-10-05T11:17:40.171Z,7.57
2018-10-05T11:20:08.282Z,11.03
2018-10-05T11:22:36.394Z,8.90
2018-10-05T11:25:04.683Z,7.30
2018-10-05T11:27:32.787Z,8.67
2018-10-05T11:30:00.966Z,8.17
2018-10-05T11:32:29.083Z,5.63
2018-10-05T11:34:57.265Z,8.97
2018-10-05T11:37:25.466Z,8.43
2018-10-05T11:39:53.579Z,5.50
2018-10-05T11:51:30.470Z,5.80
2018-10-05T11:53:58.642Z,6.90
2018-10-05T11:56:26.855Z,5.83
2018-10-05T11:58:55.090Z,4.60
2018-10-05T12:01:23.614Z,4.20
2018-10-05T12:03:52.175Z,3.63
2018-10-05T12:06:20.327Z,5.83
2018-10-05T12:08:48.543Z,3.80
2018-10-05T12:11:16.863Z,4.07
2018-10-05T12:13:45.114Z,5.37
2018-10-05T12:16:13.334Z,4.77
2018-10-05T12:18:41.598Z,4.57
2018-10-05T12:21:09.978Z,3.90
2018-10-05T12:23:38.163Z,5.70
2018-10-05T12:26:06.374Z,5.37
2018-10-05T12:28:34.536Z,6.03
2018-10-05T12:31:02.749Z,4.13
2018-10-05T12:33:30.939Z,5.77
2018-10-05T12:35:59.184Z,2.90
2018-10-05T12:38:27.418Z,5.23
2018-10-05T12:40:55.551Z,6.77
2018-10-05T12:43:23.748Z,3.97
2018-10-05T12:45:51.904Z,3.70
2018-10-05T12:48:20.090Z,3.30
2018-10-05T12:50:48.247Z,4.43
2018-10-05T12:53:16.421Z,3.53
2018-10-05T12:55:44.644Z,3.83
2018-10-05T12:58:12.910Z,4.80
2018-10-05T13:00:41.026Z,2.40
2018-10-05T13:03:09.219Z,5.87
2018-10-05T13:05:37.384Z,14.37
2018-10-05T13:08:05.667Z,2.10
2018-10-05T13:10:33.867Z,3.53
2018-10-05T13:13:02.095Z,4.53
2018-10-05T13:15:30.424Z,5.13
2018-10-05T13:17:58.845Z,3.00
2018-10-05T13:20:27.061Z,2.43
2018-10-05T13:22:55.229Z,2.10
2018-10-05T13:25:23.415Z,1.83
2018-10-05T13:27:51.630Z,3.10
2018-10-05T13:30:19.790Z,1.90
2018-10-05T13:32:47.948Z,3.23
2018-10-05T13:35:16.143Z,4.03
2018-10-05T13:37:44.338Z,4.33
2018-10-05T13:40:12.462Z,1.63
2018-10-05T13:42:40.665Z,3.40
2018-10-05T13:45:08.861Z,2.73
2018-10-05T13:47:37.008Z,3.63
2018-10-05T13:50:05.483Z,4.57
2018-10-05T13:52:33.614Z,2.40
2018-10-05T13:55:01.795Z,4.67
2018-10-05T13:57:29.929Z,4.47
2018-10-05T13:59:58.134Z,2.53
2018-10-05T14:02:26.310Z,3.47
2018-10-05T14:04:54.507Z,4.40
2018-10-05T14:07:22.731Z,3.93
2018-10-05T14:09:51.752Z,2.33
2018-10-05T14:12:20.017Z,4.37
2018-10-05T14:14:48.286Z,3.43
2018-10-05T14:17:16.478Z,3.70
2018-10-05T14:19:44.751Z,2.53
2018-10-05T14:22:12.966Z,5.00
2018-10-05T14:24:41.109Z,6.47
2018-10-05T14:27:09.311Z,5.33
2018-10-05T14:29:37.505Z,3.87
2018-10-05T14:32:05.763Z,4.07
2018-10-05T14:34:33.898Z,2.97
2018-10-05T14:37:02.039Z,4.50
2018-10-05T14:39:30.231Z,3.73
2018-10-05T14:41:58.384Z,3.80
2018-10-05T14:44:26.549Z,5.17
2018-10-05T14:46:54.734Z,3.67
2018-10-05T14:49:22.903Z,3.97
2018-10-05T14:51:51.154Z,5.93
2018-10-05T14:54:19.344Z,4.10
2018-10-05T14:56:47.503Z,6.17
2018-10-05T14:59:15.687Z,2.90
2018-10-05T15:01:43.935Z,5.17
2018-10-05T15:04:12.133Z,5.17
2018-10-05T15:06:40.273Z,3.23
2018-10-05T15:09:08.426Z,4.00
2018-10-05T15:11:36.570Z,4.43
2018-10-05T15:14:04.754Z,5.07
2018-10-05T15:16:32.914Z,4.33
2018-10-05T15:19:01.039Z,3.33
2018-10-05T15:21:29.225Z,5.23
2018-10-05T15:23:57.449Z,2.57
2018-10-05T15:26:25.582Z,3.30
2018-10-05T15:28:53.738Z,5.23
2018-10-05T15:31:21.891Z,5.07
2018-10-05T15:33:50.143Z,3.57
2018-10-05T15:36:18.293Z,6.23
2018-10-05T15:38:46.492Z,5.07
2018-10-05T15:41:14.662Z,5.30
2018-10-05T15:43:42.797Z,4.60
2018-10-05T15:46:11.764Z,4.27
2018-10-05T15:48:39.937Z,5.37
2018-10-05T15:51:08.087Z,4.83
2018-10-05T15:53:36.430Z,5.27
2018-10-05T15:56:04.605Z,6.27
2018-10-05T15:58:32.788Z,6.10
2018-10-05T16:01:01.010Z,4.67
2018-10-05T16:03:29.237Z,5.70
2018-10-05T16:05:57.416Z,9.00
2018-10-05T16:08:25.551Z,6.57
2018-10-05T16:10:53.683Z,6.73
2018-10-05T16:13:21.818Z,5.50
2018-10-05T16:15:49.963Z,3.73
2018-10-05T16:18:18.230Z,8.60
2018-10-05T16:20:46.346Z,6.33
2018-10-05T16:23:14.507Z,7.73
2018-10-05T16:25:42.670Z,4.47
2018-10-05T16:28:10.866Z,8.43
2018-10-05T16:30:39.054Z,6.43
2018-10-05T16:33:07.239Z,6.70
2018-10-05T16:35:35.390Z,6.50
2018-10-05T16:38:03.530Z,6.33
2018-10-05T16:40:31.679Z,12.80
2018-10-05T16:42:59.856Z,3.90
2018-10-05T16:45:28.112Z,6.40
2018-10-05T16:47:58.137Z,8.00
2018-10-05T16:50:26.307Z,6.40
2018-10-05T16:52:54.471Z,9.67
2018-10-05T16:55:22.923Z,8.70
2018-10-05T16:57:51.068Z,7.03
2018-10-05T17:00:19.202Z,6.10
2018-10-05T17:02:47.387Z,7.10
2018-10-05T17:05:15.597Z,7.70
2018-10-05T17:07:43.786Z,10.03
2018-10-05T17:10:11.906Z,6.97
2018-10-05T17:12:40.047Z,6.63
2018-10-05T17:15:08.228Z,7.00
2018-10-05T17:17:36.398Z,6.93
2018-10-05T17:20:04.565Z,6.67
2018-10-05T17:22:32.715Z,6.37
2018-10-05T17:25:00.975Z,9.73
2018-10-05T17:27:29.173Z,7.60
2018-10-05T17:29:57.307Z,7.30
2018-10-05T17:32:25.486Z,5.90
2018-10-05T17:34:53.675Z,9.10
2018-10-05T17:37:21.767Z,10.87
2018-10-05T17:39:49.946Z,7.73
2018-10-05T17:42:18.096Z,7.37
2018-10-05T17:44:46.260Z,7.17
2018-10-05T17:47:14.423Z,7.63
2018-10-05T17:49:42.578Z,9.27
2018-10-05T17:52:10.759Z,7.87
2018-10-05T17:54:38.887Z,9.37
2018-10-05T17:57:07.042Z,8.90
2018-10-05T17:59:35.201Z,8.57
2018-10-05T18:02:03.379Z,7.33
2018-10-05T18:04:31.531Z,9.37
2018-10-05T18:06:59.770Z,9.60
2018-10-05T18:09:28.044Z,7.90
2018-10-05T18:11:56.212Z,6.87
2018-10-05T18:14:24.369Z,7.13
2018-10-05T18:16:52.491Z,6.77
2018-10-05T18:19:20.672Z,16.53
2018-10-05T18:21:48.848Z,13.10
2018-10-05T18:24:17.023Z,11.90
2018-10-05T18:26:45.187Z,11.73
2018-10-05T18:29:13.327Z,7.93
2018-10-05T18:31:41.464Z,9.87
2018-10-05T18:34:09.650Z,9.13
2018-10-05T18:36:37.776Z,7.03
2018-10-05T18:39:07.870Z,8.07
2018-10-05T18:41:36.075Z,8.87
2018-10-05T18:44:04.264Z,8.23
2018-10-05T18:46:32.387Z,14.37
2018-10-05T18:49:00.558Z,8.90
2018-10-05T18:51:28.674Z,9.33
2018-10-05T18:53:56.810Z,7.37
2018-10-05T18:57:38.966Z,11.20
2018-10-05T19:00:07.181Z,9.20
2018-10-05T19:02:35.331Z,9.20
2018-10-05T19:05:03.487Z,7.20
2018-10-05T19:07:31.632Z,8.73
2018-10-05T19:09:59.766Z,9.47
2018-10-05T19:12:27.930Z,7.57
2018-10-05T19:14:56.078Z,8.30
2018-10-05T19:17:24.215Z,8.53
2018-10-05T19:19:52.366Z,9.07
2018-10-05T19:22:20.519Z,8.40
2018-10-05T19:24:48.687Z,13.90
2018-10-05T19:27:16.874Z,7.57
2018-10-05T19:29:45.066Z,9.57
2018-10-05T19:32:13.207Z,9.53
2018-10-05T19:34:41.364Z,11.13
2018-10-05T19:37:09.519Z,10.20
2018-10-05T19:39:37.687Z,10.20
2018-10-05T19:42:05.855Z,9.50
2018-10-05T19:44:34.018Z,10.33
2018-10-05T19:47:02.167Z,9.43
2018-10-05T19:49:30.310Z,10.07
2018-10-05T19:51:58.450Z,6.93
2018-10-05T19:54:26.657Z,8.10
2018-10-05T19:56:54.807Z,9.70
2018-10-05T19:59:22.964Z,10.83
2018-10-05T20:01:51.193Z,9.00
2018-10-05T20:04:19.322Z,6.70
2018-10-05T20:06:47.472Z,11.57
2018-10-05T20:09:15.666Z,8.53
2018-10-05T20:11:43.799Z,9.03
2018-10-05T20:14:11.946Z,7.50
2018-10-05T20:16:40.083Z,7.07
2018-10-05T20:19:08.245Z,7.67
2018-10-05T20:21:36.371Z,8.67
2018-10-05T20:24:04.515Z,7.57
2018-10-05T20:26:32.643Z,7.80
2018-10-05T20:29:00.810Z,8.63
2018-10-05T20:31:28.958Z,8.37
2018-10-05T20:33:57.102Z,7.87
2018-10-05T20:36:25.366Z,9.50
2018-10-05T20:38:53.499Z,8.17
2018-10-05T20:41:21.872Z,6.63
2018-10-05T20:43:50.012Z,7.33
2018-10-05T20:46:18.150Z,11.40
2018-10-05T20:48:46.283Z,7.27
2018-10-05T20:51:14.423Z,8.13
2018-10-05T20:53:42.546Z,6.70
2018-10-05T20:56:10.702Z,12.27
2018-10-05T20:58:38.835Z,6.63
2018-10-05T21:01:06.986Z,9.80
2018-10-05T21:03:35.131Z,9.00
2018-10-05T21:06:03.290Z,11.50
2018-10-05T21:08:31.489Z,5.53
2018-10-05T21:10:59.631Z,5.97
2018-10-05T21:13:27.761Z,6.67
2018-10-05T21:15:55.914Z,6.87
2018-10-05T21:18:24.074Z,8.73
2018-10-05T21:20:52.205Z,5.87
2018-10-05T21:23:20.331Z,6.90
2018-10-05T21:25:48.484Z,7.97
2018-10-05T21:28:16.646Z,5.93
2018-10-05T21:30:44.835Z,11.73
2018-10-05T21:33:13.056Z,5.33
2018-10-05T21:35:41.252Z,7.40
2018-10-05T21:38:09.356Z,6.70
2018-10-05T21:40:37.515Z,7.20
2018-10-05T21:43:05.715Z,9.40
2018-10-05T21:45:33.851Z,7.10
2018-10-05T21:48:01.984Z,7.97
2018-10-05T21:50:30.116Z,5.93
2018-10-05T21:52:58.286Z,6.47
2018-10-05T21:55:26.463Z,5.00
2018-10-05T21:57:54.598Z,4.90
2018-10-05T22:00:22.812Z,8.07
2018-10-05T22:02:50.959Z,9.07
2018-10-05T22:05:19.091Z,7.43
2018-10-05T22:07:47.341Z,6.53
2018-10-05T22:10:15.497Z,6.23
2018-10-05T22:12:43.635Z,7.00
2018-10-05T22:15:11.770Z,9.50
2018-10-05T22:17:39.930Z,10.17
2018-10-05T22:20:08.088Z,9.20
2018-10-05T22:22:36.262Z,8.20
2018-10-05T22:25:04.448Z,8.20
2018-10-05T22:27:32.604Z,9.83
2018-10-05T22:30:00.735Z,9.83
2018-10-05T22:32:28.882Z,7.03
2018-10-05T22:34:57.015Z,6.17
2018-10-05T22:37:25.170Z,7.20
2018-10-05T22:39:53.323Z,7.27
2018-10-05T22:42:21.462Z,6.97
2018-10-05T22:44:49.898Z,6.97
2018-10-05T22:47:18.023Z,9.20
2018-10-05T22:49:46.180Z,8.80
2018-10-05T22:52:14.349Z,7.57
2018-10-05T22:54:42.526Z,7.77
2018-10-05T22:57:10.659Z,10.20
2018-10-05T22:59:38.835Z,8.23
2018-10-05T23:02:07.043Z,7.27
2018-10-05T23:04:35.255Z,8.40
2018-10-05T23:07:03.451Z,8.53
2018-10-05T23:09:31.607Z,9.50
2018-10-05T23:11:59.781Z,8.27
2018-10-05T23:14:27.902Z,8.30
2018-10-05T23:16:56.093Z,7.93
2018-10-05T23:19:24.271Z,12.43
2018-10-05T23:21:52.410Z,9.90
2018-10-05T23:24:20.605Z,10.43
2018-10-05T23:26:48.791Z,10.97
2018-10-05T23:29:16.926Z,7.50
2018-10-05T23:31:45.071Z,10.17
2018-10-05T23:34:13.291Z,11.63
2018-10-05T23:36:41.436Z,8.10
2018-10-05T23:39:10.937Z,6.40
2018-10-05T23:41:39.134Z,10.87
2018-10-05T23:44:07.407Z,11.27
2018-10-05T23:46:35.686Z,8.17
2018-10-05T23:49:03.826Z,8.40
2018-10-05T23:51:31.958Z,10.40
2018-10-05T23:54:00.327Z,8.30
2018-10-05T23:56:28.494Z,9.43
2018-10-05T23:58:56.980Z,6.33
